createdAt,value
2022-08-18T00:01:11.107Z,7.75
2022-08-18T00:03:57.084Z,8.65
2022-08-18T00:06:30.417Z,4.78
2022-08-18T00:09:00.063Z,5.40
2022-08-18T00:11:41.245Z,6.68
2022-08-18T00:14:21.632Z,6.30
2022-08-18T00:16:53.716Z,8.02
2022-08-18T00:19:47.158Z,4.50
2022-08-18T00:22:16.800Z,4.30
2022-08-18T00:24:48.143Z,11.25
2022-08-18T00:27:22.937Z,6.82
2022-08-18T00:29:53.470Z,7.63
2022-08-18T00:32:24.441Z,5.82
2022-08-18T00:34:52.759Z,5.57
2022-08-18T00:37:23.848Z,6.03
2022-08-18T00:39:53.786Z,6.07
2022-08-18T00:42:28.971Z,3.40
2022-08-18T00:45:03.202Z,7.68
2022-08-18T00:47:32.804Z,7.25
2022-08-18T00:50:22.811Z,5.00
2022-08-18T00:52:55.087Z,4.78
2022-08-18T00:55:24.348Z,5.32
2022-08-18T00:57:54.138Z,4.93
2022-08-18T01:00:23.511Z,7.18
2022-08-18T01:02:55.841Z,5.75
2022-08-18T01:05:35.054Z,8.98
2022-08-18T01:08:06.218Z,3.28
2022-08-18T01:10:38.161Z,4.47
2022-08-18T01:13:07.660Z,4.90
2022-08-18T01:15:36.817Z,6.25
2022-08-18T01:18:29.259Z,6.38
2022-08-18T01:21:17.195Z,4.90
2022-08-18T01:23:48.123Z,9.43
2022-08-18T01:26:16.916Z,5.32
2022-08-18T01:28:46.947Z,7.32
2022-08-18T01:31:31.380Z,4.55
2022-08-18T01:34:01.225Z,6.95
2022-08-18T01:36:30.475Z,5.47
2022-08-18T01:39:01.266Z,6.78
2022-08-18T01:41:33.452Z,6.70
2022-08-18T01:44:03.012Z,5.75
2022-08-18T01:46:34.280Z,4.55
2022-08-18T01:49:03.846Z,4.10
2022-08-18T01:51:40.316Z,3.78
2022-08-18T01:54:13.222Z,5.20
2022-08-18T01:56:43.142Z,6.07
2022-08-18T01:59:15.220Z,6.90
2022-08-18T02:01:53.146Z,6.57
2022-08-18T02:04:35.700Z,5.57
2022-08-18T02:07:08.139Z,4.40
2022-08-18T02:09:39.939Z,4.25
2022-08-18T02:12:10.468Z,8.68
2022-08-18T02:14:39.915Z,6.57
2022-08-18T02:17:11.058Z,4.10
2022-08-18T02:19:42.349Z,6.82
2022-08-18T02:22:13.149Z,5.50
2022-08-18T02:24:44.931Z,10.13
2022-08-18T02:27:14.614Z,5.10
2022-08-18T02:30:02.668Z,3.65
2022-08-18T02:32:31.329Z,7.70
2022-08-18T02:35:01.153Z,4.28
2022-08-18T02:37:31.213Z,6.35
2022-08-18T02:40:02.233Z,7.50
2022-08-18T02:42:33.903Z,5.38
2022-08-18T02:45:03.194Z,5.90
2022-08-18T02:47:33.812Z,8.07
2022-08-18T02:50:03.136Z,5.75
2022-08-18T02:52:35.227Z,5.47
2022-08-18T02:55:06.941Z,5.88
2022-08-18T02:57:36.203Z,5.60
2022-08-18T03:00:06.404Z,7.25
2022-08-18T03:02:41.117Z,6.38
2022-08-18T03:05:14.666Z,13.57
2022-08-18T03:07:44.064Z,4.90
2022-08-18T03:10:33.131Z,5.15
2022-08-18T03:13:05.141Z,8.82
2022-08-18T03:15:34.252Z,6.57
2022-08-18T03:18:03.654Z,5.88
2022-08-18T03:20:33.934Z,4.82
2022-08-18T03:23:10.114Z,4.18
2022-08-18T03:25:46.243Z,6.43
2022-08-18T03:28:15.362Z,3.78
2022-08-18T03:30:44.838Z,5.00
2022-08-18T03:33:16.004Z,6.90
2022-08-18T03:35:44.092Z,6.20
2022-08-18T03:38:13.147Z,6.05
2022-08-18T03:40:43.617Z,6.50
2022-08-18T03:43:49.555Z,4.85
2022-08-18T03:46:03.547Z,6.55
2022-08-18T03:48:33.170Z,4.60
2022-08-18T03:51:05.491Z,5.15
2022-08-18T03:53:37.048Z,4.53
2022-08-18T03:56:09.500Z,5.13
2022-08-18T03:58:40.094Z,7.38
2022-08-18T04:01:09.134Z,6.25
2022-08-18T04:03:40.754Z,5.35
2022-08-18T04:06:12.624Z,4.68
2022-08-18T04:08:42.399Z,5.57
2022-08-18T04:11:13.044Z,9.65
2022-08-18T04:13:43.730Z,5.90
2022-08-18T04:16:13.214Z,5.78
2022-08-18T04:18:42.403Z,7.15
2022-08-18T04:21:13.685Z,6.00
2022-08-18T04:23:43.829Z,4.75
2022-08-18T04:26:19.146Z,5.45
2022-08-18T04:28:50.052Z,5.68
2022-08-18T04:31:23.616Z,6.80
2022-08-18T04:33:53.021Z,7.25
2022-08-18T04:36:22.401Z,8.05
2022-08-18T04:38:52.088Z,8.60
2022-08-18T04:41:27.594Z,5.17
2022-08-18T04:43:59.325Z,8.82
2022-08-18T04:46:28.655Z,7.97
2022-08-18T04:48:59.716Z,5.97
2022-08-18T04:52:38.972Z,7.05
2022-08-18T04:54:18.428Z,8.07
2022-08-18T04:56:47.664Z,7.82
2022-08-18T04:59:18.478Z,7.88
2022-08-18T05:01:48.184Z,9.35
2022-08-18T05:04:18.503Z,6.78
2022-08-18T05:06:47.884Z,6.85
2022-08-18T05:09:22.809Z,6.35
2022-08-18T05:11:52.762Z,10.25
2022-08-18T05:14:23.219Z,8.43
2022-08-18T05:16:52.054Z,8.50
2022-08-18T05:19:23.464Z,10.45
2022-08-18T05:21:59.605Z,10.43
2022-08-18T05:24:36.858Z,8.57
2022-08-18T05:27:08.252Z,9.55
2022-08-18T05:29:41.513Z,9.23
2022-08-18T05:32:12.380Z,7.22
2022-08-18T05:35:04.627Z,6.30
2022-08-18T05:37:37.180Z,6.22
2022-08-18T05:40:11.425Z,7.35
2022-08-18T05:42:41.234Z,6.13
2022-08-18T05:45:13.320Z,7.70
2022-08-18T05:47:42.848Z,9.13
2022-08-18T05:50:13.293Z,6.75
2022-08-18T05:52:45.062Z,7.60
2022-08-18T05:55:34.985Z,6.68
2022-08-18T05:58:05.472Z,8.65
2022-08-18T06:01:26.171Z,7.55
2022-08-18T06:03:57.918Z,5.65
2022-08-18T06:06:29.595Z,6.97
2022-08-18T06:08:59.148Z,7.80
2022-08-18T06:11:28.618Z,4.68
2022-08-18T06:13:59.861Z,4.95
2022-08-18T06:16:37.191Z,4.13
2022-08-18T06:19:11.031Z,7.55
2022-08-18T06:21:42.847Z,12.73
2022-08-18T06:24:18.921Z,7.50
2022-08-18T06:26:51.734Z,9.90
2022-08-18T06:29:28.227Z,14.52
2022-08-18T06:32:01.266Z,12.32
2022-08-18T06:34:37.311Z,10.00
2022-08-18T06:37:10.092Z,7.05
2022-08-18T06:39:44.026Z,7.57
2022-08-18T06:42:13.700Z,3.38
2022-08-18T06:44:45.810Z,4.97
2022-08-18T06:47:16.152Z,4.80
2022-08-18T06:49:48.442Z,3.75
2022-08-18T06:52:27.284Z,6.07
2022-08-18T06:54:57.482Z,4.25
2022-08-18T06:57:30.404Z,3.20
2022-08-18T07:00:00.439Z,8.85
2022-08-18T07:02:46.989Z,9.02
2022-08-18T07:05:23.871Z,5.38
2022-08-18T07:08:15.615Z,5.03
2022-08-18T07:10:48.567Z,3.88
2022-08-18T07:13:26.469Z,7.82
2022-08-18T07:15:56.861Z,5.50
2022-08-18T07:18:27.886Z,3.30
2022-08-18T07:21:00.258Z,5.78
2022-08-18T07:23:38.318Z,4.47
2022-08-18T07:26:10.292Z,5.57
2022-08-18T07:28:41.843Z,2.55
2022-08-18T07:31:17.402Z,3.95
2022-08-18T07:33:51.775Z,4.28
2022-08-18T07:36:21.692Z,5.97
2022-08-18T07:38:54.668Z,4.20
2022-08-18T07:41:26.778Z,11.90
2022-08-18T07:44:09.872Z,7.10
2022-08-18T07:46:45.323Z,4.30
2022-08-18T07:49:21.981Z,4.70
2022-08-18T07:51:55.525Z,3.00
2022-08-18T07:54:48.935Z,2.75
2022-08-18T07:57:25.815Z,2.67
2022-08-18T07:59:58.273Z,4.53
2022-08-18T08:02:37.737Z,4.30
2022-08-18T08:05:15.361Z,2.72
2022-08-18T08:07:50.391Z,2.83
2022-08-18T08:10:33.738Z,2.40
2022-08-18T08:13:10.067Z,3.65
2022-08-18T08:15:44.573Z,3.67
2022-08-18T08:20:45.959Z,5.18
2022-08-18T08:23:24.136Z,2.72
2022-08-18T08:26:11.570Z,2.05
2022-08-18T08:28:43.840Z,2.58
2022-08-18T08:31:36.336Z,2.65
2022-08-18T08:34:06.113Z,4.38
2022-08-18T08:36:37.142Z,2.55
2022-08-18T08:39:15.831Z,3.88
2022-08-18T08:41:47.116Z,2.50
2022-08-18T08:44:23.683Z,1.95
2022-08-18T08:46:55.370Z,3.53
2022-08-18T08:49:38.620Z,4.80
2022-08-18T08:52:11.508Z,3.50
2022-08-18T08:54:47.916Z,4.57
2022-08-18T08:57:17.141Z,4.47
2022-08-18T08:59:47.846Z,2.20
2022-08-18T09:02:54.915Z,4.07
2022-08-18T09:05:25.474Z,3.35
2022-08-18T09:08:11.721Z,2.33
2022-08-18T09:11:00.129Z,2.10
2022-08-18T09:13:43.025Z,2.22
2022-08-18T09:16:22.886Z,2.92
2022-08-18T09:19:13.773Z,2.13
2022-08-18T09:21:45.803Z,2.90
2022-08-18T09:24:22.101Z,2.00
2022-08-18T09:26:57.194Z,3.10
2022-08-18T09:29:28.284Z,2.58
2022-08-18T09:32:33.440Z,2.45
2022-08-18T09:35:27.657Z,2.85
2022-08-18T09:38:12.779Z,1.48
2022-08-18T09:41:04.920Z,2.05
2022-08-18T09:43:39.949Z,3.13
2022-08-18T09:46:12.417Z,1.40
2022-08-18T09:48:43.857Z,1.98
2022-08-18T09:51:23.502Z,1.70
2022-08-18T09:54:13.256Z,1.52
2022-08-18T10:00:31.225Z,2.25
2022-08-18T10:03:12.560Z,1.65
2022-08-18T10:05:43.869Z,1.75
2022-08-18T10:08:35.297Z,1.40
2022-08-18T10:11:16.690Z,2.30
2022-08-18T10:13:56.216Z,1.33
2022-08-18T10:16:31.168Z,3.08
2022-08-18T10:19:09.485Z,1.80
2022-08-18T10:22:11.039Z,2.35
2022-08-18T10:24:43.036Z,3.00
2022-08-18T10:27:36.737Z,1.43
2022-08-18T10:30:07.105Z,1.40
2022-08-18T10:32:53.984Z,1.52
2022-08-18T10:35:56.733Z,1.67
2022-08-18T10:38:49.652Z,1.50
2022-08-18T10:41:25.847Z,1.90
2022-08-18T10:43:57.811Z,1.63
2022-08-18T10:49:25.882Z,2.15
2022-08-18T10:52:29.363Z,1.90
2022-08-18T10:55:12.416Z,2.83
2022-08-18T10:58:01.506Z,1.73
2022-08-18T11:00:50.546Z,3.50
2022-08-18T11:06:21.821Z,1.88
2022-08-18T11:08:55.170Z,2.70
2022-08-18T11:11:37.541Z,2.17
2022-08-18T11:14:15.866Z,1.63
2022-08-18T11:16:50.579Z,2.40
2022-08-18T11:19:24.508Z,1.35
2022-08-18T11:21:54.487Z,1.70
2022-08-18T11:24:25.888Z,1.70
2022-08-18T11:26:55.874Z,2.05
2022-08-18T11:29:32.086Z,2.47
2022-08-18T11:32:06.432Z,2.72
2022-08-18T11:34:45.805Z,1.92
2022-08-18T11:37:28.253Z,4.60
2022-08-18T11:43:29.855Z,4.07
2022-08-18T11:46:14.059Z,2.28
2022-08-18T11:48:52.084Z,2.92
2022-08-18T11:54:24.686Z,2.15
2022-08-18T11:56:54.611Z,1.88
2022-08-18T11:59:55.196Z,4.18
2022-08-18T12:02:26.008Z,2.13
2022-08-18T12:05:03.201Z,4.50
2022-08-18T12:07:37.694Z,2.38
2022-08-18T12:10:25.883Z,2.10
2022-08-18T12:12:59.865Z,1.60
2022-08-18T12:18:28.669Z,2.08
2022-08-18T12:20:59.291Z,2.85
2022-08-18T12:23:38.375Z,4.20
2022-08-18T12:26:27.320Z,2.05
2022-08-18T12:29:04.656Z,2.63
2022-08-18T12:31:42.735Z,1.70
2022-08-18T12:34:17.828Z,4.10
2022-08-18T12:36:47.573Z,1.88
2022-08-18T12:39:17.137Z,1.30
2022-08-18T12:41:47.929Z,2.67
2022-08-18T12:44:18.264Z,2.83
2022-08-18T12:46:46.395Z,3.33
2022-08-18T12:49:19.632Z,1.83
2022-08-18T12:51:50.322Z,1.70
2022-08-18T12:54:20.074Z,1.63
2022-08-18T12:56:55.248Z,1.90
2022-08-18T12:59:25.592Z,3.95
2022-08-18T13:04:43.075Z,1.73
2022-08-18T13:07:13.427Z,2.00
2022-08-18T13:09:53.812Z,1.77
2022-08-18T13:12:25.582Z,1.30
2022-08-18T13:14:55.748Z,2.78
2022-08-18T13:17:30.005Z,1.42
2022-08-18T13:20:05.845Z,3.05
2022-08-18T13:22:35.407Z,1.98
2022-08-18T13:25:07.059Z,1.17
2022-08-18T13:27:45.212Z,2.50
2022-08-18T13:30:17.026Z,2.75
2022-08-18T13:33:05.502Z,0.90
2022-08-18T13:38:18.878Z,2.15
2022-08-18T13:40:53.824Z,1.75
2022-08-18T13:43:26.048Z,2.05
2022-08-18T13:45:56.549Z,2.03
2022-08-18T13:48:26.497Z,1.70
2022-08-18T13:50:56.666Z,1.55
2022-08-18T13:53:27.250Z,1.65
2022-08-18T13:55:58.852Z,1.63
2022-08-18T13:58:29.826Z,1.88
2022-08-18T14:01:22.579Z,1.05
2022-08-18T14:03:50.142Z,1.88
2022-08-18T14:06:22.475Z,1.95
2022-08-18T14:08:55.118Z,1.15
2022-08-18T14:11:27.910Z,0.90
2022-08-18T14:14:04.506Z,1.33
2022-08-18T14:16:34.039Z,1.00
2022-08-18T14:19:30.279Z,1.00
2022-08-18T14:22:16.926Z,2.03
2022-08-18T14:25:04.925Z,1.75
2022-08-18T14:27:35.782Z,1.38
2022-08-18T14:30:07.843Z,1.27
2022-08-18T14:32:36.756Z,1.52
2022-08-18T14:35:34.264Z,1.48
2022-08-18T14:38:09.828Z,1.23
2022-08-18T14:40:41.865Z,2.30
2022-08-18T14:43:14.277Z,1.00
2022-08-18T14:45:48.979Z,1.48
2022-08-18T14:48:21.591Z,1.33
2022-08-18T14:50:52.586Z,0.80
2022-08-18T14:53:23.178Z,0.95
2022-08-18T14:55:53.493Z,1.17
2022-08-18T14:58:26.492Z,1.05
2022-08-18T15:00:58.081Z,1.05
2022-08-18T15:03:31.568Z,1.15
2022-08-18T15:06:04.711Z,1.17
2022-08-18T15:08:35.415Z,2.90
2022-08-18T15:11:11.384Z,1.35
2022-08-18T15:13:43.606Z,1.15
2022-08-18T15:16:16.063Z,0.70
2022-08-18T15:18:45.973Z,1.20
2022-08-18T15:21:35.226Z,0.80
2022-08-18T15:24:24.500Z,1.08
2022-08-18T15:26:57.874Z,1.15
2022-08-18T15:29:32.331Z,0.95
2022-08-18T15:32:10.160Z,1.02
2022-08-18T15:34:46.306Z,1.15
2022-08-18T15:37:19.777Z,1.10
2022-08-18T15:39:55.527Z,1.17
2022-08-18T15:42:25.514Z,0.80
2022-08-18T15:44:58.322Z,1.55
2022-08-18T15:47:42.497Z,0.90
2022-08-18T15:50:26.032Z,0.98
2022-08-18T15:52:57.703Z,1.00
2022-08-18T15:55:29.133Z,1.27
2022-08-18T15:58:11.032Z,0.70
2022-08-18T16:00:42.685Z,0.95
2022-08-18T16:03:21.833Z,0.75
2022-08-18T16:05:53.442Z,1.05
2022-08-18T16:08:23.319Z,0.85
2022-08-18T16:10:52.611Z,1.08
2022-08-18T16:13:26.298Z,1.30
2022-08-18T16:15:54.335Z,1.10
2022-08-18T16:18:24.814Z,1.35
2022-08-18T16:20:56.658Z,1.65
2022-08-18T16:23:26.237Z,1.60
2022-08-18T16:25:54.359Z,1.00
2022-08-18T16:28:34.730Z,1.27
2022-08-18T16:31:05.958Z,1.30
2022-08-18T16:33:36.619Z,1.02
2022-08-18T16:36:06.772Z,1.25
2022-08-18T16:38:37.017Z,1.23
2022-08-18T16:41:11.317Z,1.25
2022-08-18T16:43:44.414Z,1.60
2022-08-18T16:46:14.213Z,1.33
2022-08-18T16:48:45.905Z,0.80
2022-08-18T16:51:15.732Z,3.20
2022-08-18T16:53:45.837Z,1.00
2022-08-18T16:56:15.756Z,1.00
2022-08-18T16:59:02.303Z,1.35
2022-08-18T17:01:51.033Z,1.30
2022-08-18T17:04:22.948Z,1.15
2022-08-18T17:06:52.179Z,0.98
2022-08-18T17:09:21.420Z,0.82
2022-08-18T17:11:51.905Z,1.52
2022-08-18T17:14:21.988Z,0.93
2022-08-18T17:16:54.323Z,1.50
2022-08-18T17:19:26.206Z,1.13
2022-08-18T17:21:55.277Z,1.10
2022-08-18T17:24:31.919Z,1.88
2022-08-18T17:27:19.198Z,1.55
2022-08-18T17:30:03.310Z,1.30
2022-08-18T17:35:14.229Z,1.30
2022-08-18T17:37:49.430Z,1.00
2022-08-18T17:40:21.169Z,1.02
2022-08-18T17:42:51.578Z,1.50
2022-08-18T17:45:22.196Z,1.13
2022-08-18T17:47:55.332Z,1.10
2022-08-18T17:50:46.093Z,1.35
2022-08-18T17:53:15.830Z,1.20
2022-08-18T17:55:46.569Z,1.50
2022-08-18T17:58:29.389Z,1.40
2022-08-18T18:00:58.904Z,1.63
2022-08-18T18:03:28.583Z,1.92
2022-08-18T18:06:04.705Z,1.42
2022-08-18T18:08:52.336Z,1.55
2022-08-18T18:11:26.524Z,1.70
2022-08-18T18:13:55.784Z,1.42
2022-08-18T18:16:28.480Z,1.40
2022-08-18T18:19:01.608Z,1.60
2022-08-18T18:22:00.958Z,1.63
2022-08-18T18:24:24.200Z,1.90
2022-08-18T18:26:53.653Z,1.30
2022-08-18T18:29:29.294Z,1.55
2022-08-18T18:32:02.701Z,1.67
2022-08-18T18:34:39.520Z,1.23
2022-08-18T18:37:25.055Z,1.63
2022-08-18T18:39:57.660Z,1.33
2022-08-18T18:42:27.861Z,1.40
2022-08-18T18:44:58.256Z,1.73
2022-08-18T18:47:45.497Z,1.52
2022-08-18T18:50:18.564Z,1.40
2022-08-18T18:53:08.893Z,2.03
2022-08-18T18:55:41.251Z,1.30
2022-08-18T18:58:15.813Z,1.25
2022-08-18T19:00:55.853Z,1.63
2022-08-18T19:03:29.787Z,1.92
2022-08-18T19:06:14.096Z,2.17
2022-08-18T19:08:50.547Z,1.40
2022-08-18T19:11:22.488Z,1.65
2022-08-18T19:13:55.333Z,2.47
2022-08-18T19:16:26.028Z,2.63
2022-08-18T19:18:57.985Z,2.25
2022-08-18T19:22:04.914Z,1.40
2022-08-18T19:24:44.649Z,1.98
2022-08-18T19:27:23.195Z,2.92
2022-08-18T19:29:54.960Z,2.88
2022-08-18T19:32:29.071Z,1.67
2022-08-18T19:34:58.656Z,2.28
2022-08-18T19:37:32.355Z,3.42
2022-08-18T19:40:07.408Z,6.87
2022-08-18T19:42:40.738Z,3.05
2022-08-18T19:45:16.862Z,2.45
2022-08-18T19:47:49.986Z,4.00
2022-08-18T19:50:24.647Z,3.33
2022-08-18T19:53:02.438Z,4.47
2022-08-18T19:55:36.921Z,3.63
2022-08-18T20:00:47.305Z,3.25
2022-08-18T20:03:51.539Z,5.82
2022-08-18T20:06:42.508Z,3.63
2022-08-18T20:09:35.738Z,3.78
2022-08-18T20:12:23.063Z,5.47
2022-08-18T20:15:00.825Z,2.92
2022-08-18T20:17:30.077Z,3.47
2022-08-18T20:20:18.304Z,3.53
2022-08-18T20:22:48.050Z,3.08
2022-08-18T20:25:41.571Z,6.60
2022-08-18T20:28:35.283Z,5.53
2022-08-18T20:31:13.197Z,4.53
2022-08-18T20:33:46.204Z,3.60
2022-08-18T20:36:25.433Z,3.72
2022-08-18T20:38:55.674Z,7.25
2022-08-18T20:41:43.506Z,9.50
2022-08-18T20:44:40.400Z,6.43
2022-08-18T20:47:38.253Z,6.70
2022-08-18T20:50:43.213Z,6.28
2022-08-18T20:53:18.676Z,4.05
2022-08-18T20:55:57.338Z,3.63
2022-08-18T20:58:28.243Z,7.82
2022-08-18T21:01:00.291Z,3.65
2022-08-18T21:03:36.226Z,8.85
2022-08-18T21:06:05.589Z,4.93
2022-08-18T21:08:36.469Z,6.03
2022-08-18T21:11:07.014Z,6.07
2022-08-18T21:13:40.682Z,5.18
2022-08-18T21:16:12.478Z,4.87
2022-08-18T21:18:47.574Z,4.40
2022-08-18T21:21:26.826Z,5.82
2022-08-18T21:23:57.347Z,6.55
2022-08-18T21:26:26.972Z,5.22
2022-08-18T21:29:00.389Z,6.07
2022-08-18T21:31:43.952Z,4.60
2022-08-18T21:34:18.417Z,5.10
2022-08-18T21:36:53.671Z,5.47
2022-08-18T21:39:23.174Z,4.90
2022-08-18T21:41:55.229Z,6.97
2022-08-18T21:44:26.423Z,6.78
2022-08-18T21:47:06.501Z,6.57
2022-08-18T21:49:35.818Z,7.80
2022-08-18T21:52:05.486Z,6.47
2022-08-18T21:54:34.917Z,7.05
2022-08-18T21:57:23.436Z,8.85
2022-08-18T22:00:18.424Z,7.68
2022-08-18T22:02:52.185Z,5.47
2022-08-18T22:05:29.518Z,5.72
2022-08-18T22:08:20.394Z,7.55
2022-08-18T22:11:41.800Z,5.82
2022-08-18T22:14:36.133Z,6.10
2022-08-18T22:17:30.459Z,6.78
2022-08-18T22:20:47.641Z,6.78
2022-08-18T22:23:46.267Z,4.80
2022-08-18T22:26:19.159Z,8.18
2022-08-18T22:28:53.866Z,5.05
2022-08-18T22:31:23.549Z,7.93
2022-08-18T22:33:53.331Z,8.20
2022-08-18T22:36:24.909Z,5.68
2022-08-18T22:38:55.475Z,6.43
2022-08-18T22:41:25.633Z,6.10
2022-08-18T22:43:57.604Z,6.85
2022-08-18T22:46:29.116Z,9.07
2022-08-18T22:48:58.572Z,8.68
2022-08-18T22:51:28.965Z,4.93
2022-08-18T22:53:59.224Z,4.80
2022-08-18T22:56:34.925Z,7.38
2022-08-18T22:59:13.969Z,4.45
2022-08-18T23:01:46.308Z,4.40
2022-08-18T23:04:16.755Z,5.93
2022-08-18T23:06:52.317Z,6.30
2022-08-18T23:09:25.136Z,5.63
2022-08-18T23:11:55.845Z,4.70
2022-08-18T23:14:25.398Z,5.88
2022-08-18T23:16:54.444Z,4.20
2022-08-18T23:19:23.730Z,4.82
2022-08-18T23:21:53.232Z,5.47
2022-08-18T23:24:24.975Z,4.13
2022-08-18T23:26:54.709Z,4.00
2022-08-18T23:29:23.851Z,7.10
2022-08-18T23:31:51.913Z,6.38
2022-08-18T23:34:23.152Z,5.78
2022-08-18T23:36:56.559Z,4.22
2022-08-18T23:39:27.428Z,3.97
2022-08-18T23:41:56.759Z,3.30
2022-08-18T23:44:27.477Z,7.30
2022-08-18T23:46:58.050Z,5.32
2022-08-18T23:49:29.127Z,5.15
2022-08-18T23:51:58.386Z,4.47
2022-08-18T23:54:31.094Z,5.78
2022-08-18T23:57:00.771Z,4.07
2022-08-18T23:59:30.113Z,4.85
